Time;durP1;ratioP1;P1;durP2;ratioP2;P2;SDS_P1;SDS_P2;PMS_P1;PMS_P2;Temp;Humidity;BMP_temperature;BMP_pressure;BME280_temperature;BME280_humidity;BME280_pressure;Samples;Min_cycle;Max_cycle;Signal;HPM_P1;HPM_P2
2023/07/08 00:02:10;;;;;;;9.00;4.50;;;18.00;99.90;;;;;;4899016;29;20032;-74
2023/07/08 00:04:36;;;;;;;8.60;4.18;;;18.00;99.90;;;;;;4904485;29;20046;-73
2023/07/08 00:07:02;;;;;;;8.65;4.40;;;18.00;99.90;;;;;;4906886;29;20095;-74
2023/07/08 00:09:27;;;;;;;8.25;4.65;;;17.90;99.90;;;;;;4907285;29;20024;-74
2023/07/08 00:11:53;;;;;;;6.40;3.95;;;17.90;99.90;;;;;;4897779;29;20032;-74
2023/07/08 00:14:18;;;;;;;7.20;4.47;;;17.90;99.90;;;;;;4889676;29;20035;-74
2023/07/08 00:16:44;;;;;;;5.53;3.67;;;17.80;99.90;;;;;;4906174;29;20110;-74
2023/07/08 00:19:10;;;;;;;8.32;4.32;;;17.80;99.90;;;;;;4899324;29;20040;-74
2023/07/08 00:21:36;;;;;;;6.85;4.10;;;17.70;99.90;;;;;;4903684;29;20108;-75
2023/07/08 00:24:02;;;;;;;6.65;4.50;;;17.70;99.90;;;;;;4888786;29;20037;-74
2023/07/08 00:26:30;;;;;;;8.63;4.40;;;17.70;99.90;;;;;;4900776;29;20488;-74
2023/07/08 00:28:56;;;;;;;10.35;4.40;;;17.60;99.90;;;;;;4887430;29;20596;-74
2023/07/08 00:31:23;;;;;;;8.23;4.10;;;17.60;99.90;;;;;;4902206;29;20051;-74
2023/07/08 00:33:56;;;;;;;7.55;4.45;;;17.60;99.90;;;;;;4903184;29;20119;-74
2023/07/08 00:36:23;;;;;;;6.82;4.05;;;17.60;99.90;;;;;;4906074;29;20052;-74
2023/07/08 00:38:49;;;;;;;6.72;4.00;;;17.60;99.90;;;;;;4907728;29;20052;-74
2023/07/08 00:41:38;;;;;;;7.50;4.53;;;17.60;99.90;;;;;;4898537;29;20052;-74
2023/07/08 00:44:03;;;;;;;11.93;4.47;;;17.60;99.90;;;;;;4888296;29;20764;-74
2023/07/08 00:46:37;;;;;;;7.25;4.30;;;17.60;99.90;;;;;;4899063;29;20028;-74
2023/07/08 00:49:08;;;;;;;8.20;4.53;;;17.60;99.90;;;;;;4915329;29;20044;-75
2023/07/08 00:51:39;;;;;;;6.72;4.40;;;17.60;99.90;;;;;;4901456;29;20139;-74
2023/07/08 00:54:16;;;;;;;8.00;4.43;;;17.60;99.90;;;;;;4886368;29;20076;-73
2023/07/08 00:57:02;;;;;;;9.55;4.53;;;17.60;99.90;;;;;;4900581;29;20123;-74
2023/07/08 00:59:32;;;;;;;7.53;4.93;;;17.60;99.90;;;;;;4902083;29;20694;-74
2023/07/08 01:02:01;;;;;;;7.38;4.22;;;17.70;99.90;;;;;;4903887;29;20103;-74
2023/07/08 01:04:58;;;;;;;10.48;4.28;;;17.70;99.90;;;;;;4901654;29;20044;-73
2023/07/08 01:07:26;;;;;;;7.75;4.43;;;17.70;99.90;;;;;;4901445;29;20120;-74
2023/07/08 01:10:01;;;;;;;6.38;4.50;;;17.70;99.90;;;;;;4906955;29;20555;-73
2023/07/08 01:12:33;;;;;;;8.43;4.28;;;17.70;99.90;;;;;;4903124;29;20532;-74
2023/07/08 01:15:02;;;;;;;6.45;3.88;;;17.70;99.90;;;;;;4900975;29;20456;-74
2023/07/08 01:17:32;;;;;;;6.80;4.32;;;17.70;99.90;;;;;;4903151;29;20107;-74
2023/07/08 01:20:05;;;;;;;8.85;5.22;;;17.70;99.90;;;;;;4904670;29;20118;-75
2023/07/08 01:22:35;;;;;;;9.30;5.68;;;17.70;99.90;;;;;;4905709;29;20067;-74
2023/07/08 01:25:03;;;;;;;9.07;5.45;;;17.60;99.90;;;;;;4905118;29;20427;-74
2023/07/08 01:27:31;;;;;;;11.05;4.70;;;17.60;99.90;;;;;;4904165;29;20028;-74
2023/07/08 01:29:58;;;;;;;8.45;4.38;;;17.60;99.90;;;;;;4900822;29;20032;-74
2023/07/08 01:32:24;;;;;;;8.45;5.13;;;17.50;99.90;;;;;;4901342;29;20043;-74
2023/07/08 01:35:00;;;;;;;7.93;5.18;;;17.50;99.90;;;;;;4885184;29;20036;-74
2023/07/08 01:38:03;;;;;;;7.95;4.93;;;17.50;99.90;;;;;;4886754;29;21922;-74
2023/07/08 01:40:30;;;;;;;9.95;4.53;;;17.50;99.90;;;;;;4869454;29;20044;-75
2023/07/08 01:42:57;;;;;;;8.45;4.55;;;17.40;99.90;;;;;;4905700;29;20472;-74
2023/07/08 01:45:26;;;;;;;6.70;4.45;;;17.50;99.90;;;;;;4901231;29;20028;-73
2023/07/08 01:48:05;;;;;;;8.38;4.40;;;17.40;99.90;;;;;;4904934;29;20506;-74
2023/07/08 01:50:34;;;;;;;7.60;4.70;;;17.40;99.90;;;;;;4902490;29;20072;-74
2023/07/08 01:53:04;;;;;;;8.63;4.32;;;17.40;99.90;;;;;;4889267;29;20042;-73
2023/07/08 01:55:30;;;;;;;9.15;4.97;;;17.40;99.90;;;;;;4903324;29;20020;-74
2023/07/08 01:57:55;;;;;;;9.15;5.00;;;17.40;99.90;;;;;;4905722;29;20040;-74
2023/07/08 02:00:22;;;;;;;9.75;4.60;;;17.40;99.90;;;;;;4907093;29;20044;-74
2023/07/08 02:02:48;;;;;;;7.35;4.07;;;17.30;99.90;;;;;;4906227;29;20038;-74
2023/07/08 02:05:14;;;;;;;7.88;4.32;;;17.40;99.90;;;;;;4900694;29;20076;-74
2023/07/08 02:07:40;;;;;;;6.53;4.28;;;17.50;99.90;;;;;;4889583;29;20033;-74
2023/07/08 02:10:06;;;;;;;10.93;4.70;;;17.60;99.90;;;;;;4888551;29;20036;-74
2023/07/08 02:12:32;;;;;;;7.55;4.15;;;17.80;99.90;;;;;;4900672;29;20032;-74
2023/07/08 02:15:00;;;;;;;6.50;4.30;;;17.90;99.90;;;;;;4905373;29;20051;-74
2023/07/08 02:17:28;;;;;;;9.50;4.43;;;17.90;99.90;;;;;;4901161;29;20028;-74
2023/07/08 02:19:54;;;;;;;10.93;4.57;;;18.00;99.90;;;;;;4902645;29;20032;-74
2023/07/08 02:22:20;;;;;;;10.32;4.60;;;18.10;99.90;;;;;;4911652;29;20052;-74
2023/07/08 02:24:45;;;;;;;9.82;4.57;;;18.20;99.90;;;;;;4901925;29;21252;-74
2023/07/08 02:27:11;;;;;;;7.97;4.53;;;18.30;99.90;;;;;;4906095;29;20024;-73
2023/07/08 02:29:38;;;;;;;9.98;4.30;;;18.30;99.90;;;;;;4904262;29;20039;-74
2023/07/08 02:32:04;;;;;;;10.32;4.40;;;18.30;99.90;;;;;;4896674;29;20493;-74
2023/07/08 02:34:29;;;;;;;7.28;4.10;;;18.30;99.90;;;;;;4903119;29;20075;-73
2023/07/08 02:36:56;;;;;;;13.43;4.15;;;18.40;99.90;;;;;;4900832;29;20055;-73
2023/07/08 02:39:22;;;;;;;8.30;4.57;;;18.40;99.90;;;;;;4899149;29;20047;-74
2023/07/08 02:41:48;;;;;;;7.90;4.55;;;18.40;99.90;;;;;;4902706;29;20767;-74
2023/07/08 02:44:14;;;;;;;11.38;4.80;;;18.40;99.90;;;;;;4885663;29;20131;-74
2023/07/08 02:46:39;;;;;;;9.00;4.57;;;18.50;99.90;;;;;;4902268;29;20405;-74
2023/07/08 02:49:05;;;;;;;7.03;4.50;;;18.50;99.90;;;;;;4903282;29;20054;-74
2023/07/08 02:51:31;;;;;;;10.27;4.80;;;18.50;99.90;;;;;;4904108;29;20068;-74
2023/07/08 02:53:57;;;;;;;9.15;4.63;;;18.50;99.90;;;;;;4886649;29;20581;-74
2023/07/08 02:56:22;;;;;;;8.63;4.45;;;18.50;99.90;;;;;;4899330;29;20056;-74
2023/07/08 02:58:49;;;;;;;8.63;4.85;;;18.60;99.90;;;;;;4902998;29;20396;-74
2023/07/08 03:01:17;;;;;;;9.30;4.80;;;18.50;99.90;;;;;;4903621;29;21045;-74
2023/07/08 03:03:46;;;;;;;9.18;4.25;;;18.50;99.90;;;;;;4887172;29;20104;-73
2023/07/08 03:06:13;;;;;;;8.32;4.63;;;18.60;99.90;;;;;;4901425;29;20058;-73
2023/07/08 03:08:39;;;;;;;10.10;4.15;;;18.50;99.90;;;;;;4905088;29;20055;-74
2023/07/08 03:11:06;;;;;;;8.77;4.68;;;18.50;99.90;;;;;;4905441;29;20034;-74
2023/07/08 03:13:33;;;;;;;10.60;4.65;;;18.50;99.90;;;;;;4903914;29;20044;-74
2023/07/08 03:16:00;;;;;;;11.10;4.88;;;18.40;99.90;;;;;;4904084;29;20463;-74
2023/07/08 03:18:26;;;;;;;9.68;4.55;;;18.40;99.90;;;;;;4897841;29;20096;-74
2023/07/08 03:20:56;;;;;;;12.25;4.53;;;18.40;99.90;;;;;;4884171;29;20044;-74
2023/07/08 03:23:23;;;;;;;6.43;4.55;;;18.40;99.90;;;;;;4899615;29;20036;-74
2023/07/08 03:25:49;;;;;;;10.07;4.70;;;18.40;99.90;;;;;;4902333;29;20031;-75
2023/07/08 03:28:15;;;;;;;10.13;4.68;;;18.40;99.90;;;;;;4894974;29;20193;-73
2023/07/08 03:30:41;;;;;;;9.65;4.70;;;18.40;99.90;;;;;;4904406;29;20043;-74
2023/07/08 03:33:08;;;;;;;9.02;4.55;;;18.40;99.90;;;;;;4895634;29;20410;-74
2023/07/08 03:35:34;;;;;;;8.43;4.68;;;18.30;99.90;;;;;;4898740;29;20035;-74
2023/07/08 03:38:00;;;;;;;8.02;4.45;;;18.30;99.90;;;;;;4904107;29;20036;-74
2023/07/08 03:40:25;;;;;;;8.77;4.80;;;18.30;99.90;;;;;;4907639;29;20088;-74
2023/07/08 03:42:51;;;;;;;9.80;4.43;;;18.30;99.90;;;;;;4895351;29;20048;-73
2023/07/08 03:45:16;;;;;;;9.82;4.25;;;18.20;99.90;;;;;;4899774;29;20073;-74
2023/07/08 03:47:42;;;;;;;10.95;4.80;;;18.20;99.90;;;;;;4890746;29;20615;-74
2023/07/08 03:50:19;;;;;;;7.65;3.92;;;18.20;99.90;;;;;;4903550;29;20020;-75
2023/07/08 03:52:49;;;;;;;8.48;5.00;;;18.10;99.90;;;;;;4903641;29;20208;-74
2023/07/08 03:55:15;;;;;;;12.50;5.07;;;18.10;99.90;;;;;;4895126;29;20103;-74
2023/07/08 03:57:41;;;;;;;9.70;4.43;;;18.00;99.90;;;;;;4901984;29;20068;-74
2023/07/08 04:00:11;;;;;;;10.90;4.40;;;17.90;99.90;;;;;;4917643;29;20043;-76
2023/07/08 04:02:41;;;;;;;8.55;4.55;;;17.90;99.90;;;;;;4900705;29;20127;-76
2023/07/08 04:05:06;;;;;;;11.20;4.32;;;17.90;99.90;;;;;;4901455;29;20063;-77
2023/07/08 04:07:33;;;;;;;11.43;4.88;;;17.90;99.90;;;;;;4917335;29;20036;-76
2023/07/08 04:09:59;;;;;;;7.65;4.50;;;18.00;99.90;;;;;;4917276;29;20031;-76
2023/07/08 04:12:25;;;;;;;10.10;4.65;;;17.90;99.90;;;;;;4897650;29;20384;-75
2023/07/08 04:14:50;;;;;;;11.73;4.55;;;17.90;99.90;;;;;;4893787;29;20364;-76
2023/07/08 04:17:18;;;;;;;11.40;4.43;;;17.90;99.90;;;;;;4903189;29;20404;-75
2023/07/08 04:19:44;;;;;;;11.15;4.90;;;18.00;99.90;;;;;;4904354;29;20131;-74
2023/07/08 04:22:10;;;;;;;8.48;4.28;;;18.00;99.90;;;;;;4918568;29;20073;-76
2023/07/08 04:24:36;;;;;;;9.32;4.45;;;18.00;99.90;;;;;;4888305;29;20143;-76
2023/07/08 04:27:02;;;;;;;7.93;4.70;;;18.10;99.90;;;;;;4890599;29;20124;-76
2023/07/08 04:29:28;;;;;;;9.68;4.47;;;18.10;99.90;;;;;;4899722;29;20032;-76
2023/07/08 04:31:54;;;;;;;8.85;4.80;;;18.10;99.90;;;;;;4891014;29;20039;-76
2023/07/08 04:34:20;;;;;;;10.02;4.65;;;18.20;99.90;;;;;;4883998;29;20043;-76
2023/07/08 04:36:46;;;;;;;8.15;4.70;;;18.20;99.90;;;;;;4897902;29;20038;-76
2023/07/08 04:39:13;;;;;;;10.38;4.53;;;18.20;99.90;;;;;;4902574;29;20044;-76
2023/07/08 04:41:40;;;;;;;8.48;4.47;;;18.20;99.90;;;;;;4907620;29;20299;-76
2023/07/08 04:44:07;;;;;;;11.88;4.80;;;18.20;99.90;;;;;;4901749;29;20100;-76
2023/07/08 04:46:47;;;;;;;10.02;4.63;;;18.20;99.90;;;;;;4898856;29;20043;-76
2023/07/08 04:49:13;;;;;;;7.53;4.47;;;18.20;99.90;;;;;;4906940;29;20036;-76
2023/07/08 04:51:41;;;;;;;8.35;4.60;;;18.20;99.90;;;;;;4906924;29;20111;-76
2023/07/08 04:54:06;;;;;;;11.43;4.65;;;18.30;99.90;;;;;;4906630;29;20507;-76
2023/07/08 04:56:41;;;;;;;11.68;4.80;;;18.30;99.90;;;;;;4906267;29;20332;-75
2023/07/08 04:59:09;;;;;;;7.63;4.70;;;18.20;99.90;;;;;;4905455;29;20159;-76
2023/07/08 05:01:35;;;;;;;9.30;4.65;;;18.20;99.90;;;;;;4918842;29;20155;-76
2023/07/08 05:04:02;;;;;;;11.10;5.38;;;18.20;99.90;;;;;;4903520;29;20131;-76
2023/07/08 05:06:27;;;;;;;13.02;5.70;;;18.20;99.90;;;;;;4901030;29;20033;-76
2023/07/08 05:08:53;;;;;;;10.25;4.90;;;18.20;99.90;;;;;;4887214;29;20051;-76
2023/07/08 05:11:19;;;;;;;11.18;4.82;;;18.30;99.90;;;;;;4890060;29;20040;-76
2023/07/08 05:13:44;;;;;;;11.35;5.03;;;18.30;99.90;;;;;;4887966;29;20084;-76
2023/07/08 05:16:10;;;;;;;9.77;4.72;;;18.30;99.90;;;;;;4889708;29;20032;-75
2023/07/08 05:18:35;;;;;;;9.45;5.20;;;18.30;99.90;;;;;;4892553;29;20039;-75
2023/07/08 05:21:02;;;;;;;8.60;4.70;;;18.30;99.90;;;;;;4906341;29;20088;-76
2023/07/08 05:23:28;;;;;;;9.45;4.88;;;18.40;99.90;;;;;;4904888;29;20063;-76
2023/07/08 05:25:54;;;;;;;7.63;4.40;;;18.60;99.90;;;;;;4902169;29;20488;-76
2023/07/08 05:28:21;;;;;;;10.05;4.63;;;18.70;99.90;;;;;;4905363;29;20024;-76
2023/07/08 05:30:47;;;;;;;9.48;4.75;;;18.90;99.90;;;;;;4905568;29;20052;-76
2023/07/08 05:33:13;;;;;;;7.57;4.85;;;19.10;99.90;;;;;;4903658;29;20915;-76
2023/07/08 05:35:38;;;;;;;6.75;3.90;;;19.20;99.90;;;;;;4900556;29;20036;-76
2023/07/08 05:38:04;;;;;;;8.20;4.35;;;19.30;99.90;;;;;;4906610;29;20182;-76
2023/07/08 05:40:30;;;;;;;11.07;3.67;;;19.40;99.90;;;;;;4904928;29;20032;-75
2023/07/08 05:42:55;;;;;;;8.00;4.22;;;19.50;99.90;;;;;;4903308;29;20400;-76
2023/07/08 05:45:21;;;;;;;8.65;5.10;;;19.60;99.90;;;;;;4904399;29;20067;-76
2023/07/08 05:47:46;;;;;;;10.70;4.55;;;19.60;99.90;;;;;;4905354;29;20044;-76
2023/07/08 05:50:12;;;;;;;10.88;4.40;;;19.70;99.90;;;;;;4903422;29;20028;-76
2023/07/08 05:52:38;;;;;;;12.13;4.25;;;19.80;99.90;;;;;;4904089;29;20383;-76
2023/07/08 05:55:04;;;;;;;9.50;4.00;;;19.80;99.90;;;;;;4901392;29;20045;-76
2023/07/08 05:57:30;;;;;;;6.88;4.15;;;19.90;99.90;;;;;;4887434;29;20037;-76
2023/07/08 05:59:55;;;;;;;6.45;3.88;;;20.00;99.90;;;;;;4887247;29;20527;-76
2023/07/08 06:02:23;;;;;;;6.85;3.70;;;20.10;99.90;;;;;;4900785;29;20032;-76
2023/07/08 06:04:48;;;;;;;8.68;3.80;;;20.20;99.90;;;;;;4901043;29;20134;-77
2023/07/08 06:07:14;;;;;;;7.38;3.83;;;20.50;99.90;;;;;;4905122;29;20188;-75
2023/07/08 06:09:39;;;;;;;6.85;3.03;;;20.70;99.90;;;;;;4904691;29;20119;-76
2023/07/08 06:12:05;;;;;;;5.32;3.20;;;21.10;99.90;;;;;;4902231;29;20486;-76
2023/07/08 06:14:31;;;;;;;7.90;3.35;;;21.50;99.90;;;;;;4900173;29;20058;-77
2023/07/08 06:16:58;;;;;;;12.25;3.45;;;21.90;99.90;;;;;;4902990;29;20032;-76
2023/07/08 06:19:24;;;;;;;7.78;3.25;;;22.40;99.90;;;;;;4895050;29;20044;-74
2023/07/08 06:21:49;;;;;;;7.10;3.63;;;22.90;99.90;;;;;;4899863;29;20467;-73
2023/07/08 06:24:15;;;;;;;7.57;3.70;;;23.30;99.90;;;;;;4897973;29;20233;-74
2023/07/08 06:26:41;;;;;;;6.50;3.38;;;23.60;99.90;;;;;;4899698;29;20091;-73
2023/07/08 06:29:06;;;;;;;10.52;3.65;;;23.80;99.90;;;;;;4899991;29;20032;-73
2023/07/08 06:31:32;;;;;;;7.63;3.60;;;24.10;99.90;;;;;;4898822;29;20348;-74
2023/07/08 06:33:58;;;;;;;8.43;3.67;;;24.40;99.90;;;;;;4894857;29;20111;-73
2023/07/08 06:36:23;;;;;;;7.90;4.03;;;24.50;99.90;;;;;;4900302;29;20155;-74
2023/07/08 06:38:49;;;;;;;11.60;3.80;;;24.40;99.90;;;;;;4900020;29;20491;-74
2023/07/08 06:41:15;;;;;;;9.82;3.80;;;24.30;99.90;;;;;;4895113;29;20182;-73
2023/07/08 06:43:40;;;;;;;8.05;3.40;;;24.30;99.90;;;;;;4895094;29;20063;-73
2023/07/08 06:46:06;;;;;;;8.55;3.50;;;24.20;99.90;;;;;;4896660;29;20892;-75
2023/07/08 06:48:32;;;;;;;8.20;3.55;;;24.30;99.90;;;;;;4898682;29;20083;-76
2023/07/08 06:50:58;;;;;;;11.85;3.97;;;24.30;99.90;;;;;;4897138;29;20055;-76
2023/07/08 06:53:24;;;;;;;7.82;3.65;;;24.30;99.90;;;;;;4894823;29;20612;-73
2023/07/08 06:55:50;;;;;;;6.38;3.55;;;24.30;99.90;;;;;;4903704;29;20032;-74
2023/07/08 06:58:16;;;;;;;8.95;3.80;;;24.30;99.90;;;;;;4902864;29;20118;-73
2023/07/08 07:00:43;;;;;;;11.13;3.40;;;24.20;99.90;;;;;;4887974;29;20560;-76
2023/07/08 07:03:09;;;;;;;7.47;3.63;;;24.10;99.90;;;;;;4900467;29;20064;-73
2023/07/08 07:05:35;;;;;;;10.20;3.40;;;24.20;99.90;;;;;;4900558;29;20077;-74
2023/07/08 07:08:01;;;;;;;5.95;3.80;;;24.30;99.90;;;;;;4903790;29;20036;-76
2023/07/08 07:10:26;;;;;;;7.90;4.07;;;24.30;99.90;;;;;;4902429;29;20514;-74
2023/07/08 07:12:52;;;;;;;4.50;3.17;;;24.40;99.90;;;;;;4897909;29;20083;-74
2023/07/08 07:15:18;;;;;;;8.23;3.78;;;24.50;99.90;;;;;;4903358;29;20059;-74
2023/07/08 07:17:43;;;;;;;5.57;3.38;;;24.50;99.90;;;;;;4902325;29;20131;-74
2023/07/08 07:20:09;;;;;;;6.95;3.60;;;24.60;99.90;;;;;;4902748;29;20213;-74
2023/07/08 07:22:35;;;;;;;7.70;3.47;;;24.60;99.90;;;;;;4901519;29;20063;-74
2023/07/08 07:25:01;;;;;;;6.85;3.50;;;24.70;99.90;;;;;;4903404;29;20068;-74
2023/07/08 07:27:27;;;;;;;7.93;3.88;;;24.70;99.90;;;;;;4891709;29;20028;-75
2023/07/08 07:29:52;;;;;;;8.55;4.05;;;24.70;99.90;;;;;;4902854;29;20112;-73
2023/07/08 07:32:22;;;;;;;7.28;4.45;;;24.70;99.90;;;;;;4897092;29;20142;-74
2023/07/08 07:34:49;;;;;;;8.63;4.20;;;24.70;99.90;;;;;;4888923;29;20028;-74
2023/07/08 07:37:16;;;;;;;6.18;3.20;;;24.50;99.90;;;;;;4892536;29;20515;-74
2023/07/08 07:39:42;;;;;;;7.57;3.75;;;24.20;99.90;;;;;;4893759;29;20167;-73
2023/07/08 07:42:09;;;;;;;8.43;4.40;;;23.90;99.90;;;;;;4896907;29;20380;-74
2023/07/08 07:44:35;;;;;;;7.28;4.20;;;23.50;99.90;;;;;;4892945;29;20111;-73
2023/07/08 07:47:02;;;;;;;7.80;3.58;;;23.40;99.90;;;;;;4900311;29;20119;-73
2023/07/08 07:49:28;;;;;;;8.32;4.30;;;23.40;99.90;;;;;;4900080;29;20033;-73
2023/07/08 07:51:54;;;;;;;7.35;4.25;;;23.40;99.90;;;;;;4892704;29;20041;-74
2023/07/08 07:54:19;;;;;;;10.43;4.10;;;23.50;99.90;;;;;;4900381;29;20499;-74
2023/07/08 07:56:45;;;;;;;8.88;4.43;;;23.90;99.90;;;;;;4901884;29;20040;-73
2023/07/08 07:59:11;;;;;;;9.18;4.25;;;24.40;99.90;;;;;;4901121;29;20123;-74
2023/07/08 08:01:37;;;;;;;8.75;3.88;;;25.10;99.90;;;;;;4902082;29;20460;-73
2023/07/08 08:04:03;;;;;;;8.15;3.67;;;26.00;99.90;;;;;;4904762;29;20039;-73
2023/07/08 08:06:28;;;;;;;9.95;3.78;;;27.00;99.90;;;;;;4901354;29;20110;-76
2023/07/08 08:08:54;;;;;;;6.30;3.58;;;27.40;99.90;;;;;;4902763;29;20115;-76
2023/07/08 08:11:19;;;;;;;5.38;3.80;;;28.10;99.90;;;;;;4904415;29;20036;-76
2023/07/08 08:13:45;;;;;;;6.85;3.60;;;29.40;99.90;;;;;;4904281;29;20095;-75
2023/07/08 08:16:11;;;;;;;7.68;3.53;;;30.10;98.90;;;;;;4897495;29;20032;-73
2023/07/08 08:18:36;;;;;;;5.05;3.40;;;30.60;98.80;;;;;;4897843;29;20051;-74
2023/07/08 08:21:02;;;;;;;5.43;3.53;;;30.70;96.00;;;;;;4899989;29;20032;-74
2023/07/08 08:23:28;;;;;;;6.90;3.15;;;30.50;95.90;;;;;;4896948;29;20444;-74
2023/07/08 08:25:54;;;;;;;10.05;3.72;;;30.20;96.10;;;;;;4901636;29;20091;-73
2023/07/08 08:28:19;;;;;;;6.53;3.95;;;29.70;96.50;;;;;;4900975;29;20091;-73
2023/07/08 08:30:49;;;;;;;7.20;3.75;;;29.50;98.20;;;;;;4904675;29;20490;-73
2023/07/08 08:33:14;;;;;;;7.53;4.10;;;29.30;99.30;;;;;;4906271;29;20040;-73
2023/07/08 08:35:42;;;;;;;7.57;3.92;;;29.70;98.70;;;;;;4908515;29;20043;-73
2023/07/08 08:38:07;;;;;;;7.05;3.33;;;31.00;98.90;;;;;;4906466;29;20123;-73
2023/07/08 08:40:33;;;;;;;6.53;3.53;;;32.60;92.50;;;;;;4904279;29;20087;-74
2023/07/08 08:43:03;;;;;;;8.70;3.33;;;34.30;85.20;;;;;;4905978;29;20544;-73
2023/07/08 08:45:36;;;;;;;5.10;3.20;;;35.70;73.30;;;;;;4904268;29;20039;-74
2023/07/08 08:48:05;;;;;;;5.75;3.38;;;36.00;65.20;;;;;;4895567;29;20052;-73
2023/07/08 08:50:32;;;;;;;6.68;3.35;;;35.40;63.50;;;;;;4896631;29;20029;-72
2023/07/08 08:53:02;;;;;;;5.28;3.53;;;34.40;65.70;;;;;;4896843;29;20038;-73
2023/07/08 08:55:28;;;;;;;5.70;3.10;;;33.40;69.80;;;;;;4895729;29;20194;-73
2023/07/08 08:58:14;;;;;;;4.88;2.80;;;32.80;68.70;;;;;;4888528;29;20375;-73
2023/07/08 09:00:58;;;;;;;7.70;3.20;;;32.40;69.10;;;;;;4886630;29;20484;-72
2023/07/08 09:03:35;;;;;;;8.40;3.05;;;32.90;71.70;;;;;;4892973;29;20035;-73
2023/07/08 09:06:07;;;;;;;6.55;3.28;;;33.30;70.00;;;;;;4888646;29;20032;-72
2023/07/08 09:08:35;;;;;;;5.35;2.85;;;33.40;67.60;;;;;;4885645;29;20318;-73
2023/07/08 09:11:26;;;;;;;6.70;2.33;;;33.50;66.50;;;;;;4892815;29;20585;-72
2023/07/08 09:13:52;;;;;;;8.00;3.17;;;33.30;64.90;;;;;;4897464;29;20032;-74
2023/07/08 09:16:49;;;;;;;5.43;2.72;;;33.00;66.90;;;;;;4905777;29;20400;-73
2023/07/08 09:19:23;;;;;;;4.70;2.72;;;32.80;67.20;;;;;;4898610;29;20054;-73
2023/07/08 09:22:04;;;;;;;5.85;3.30;;;32.70;67.30;;;;;;4900622;29;20069;-74
2023/07/08 09:24:32;;;;;;;7.03;2.70;;;32.70;68.30;;;;;;4904132;29;20767;-73
2023/07/08 09:27:00;;;;;;;5.47;2.88;;;32.40;69.20;;;;;;4905537;29;20028;-72
2023/07/08 09:29:26;;;;;;;7.05;2.63;;;32.00;70.30;;;;;;4899202;29;20044;-73
2023/07/08 09:31:52;;;;;;;6.18;3.13;;;32.40;73.20;;;;;;4899186;29;20051;-73
2023/07/08 09:34:23;;;;;;;7.63;3.10;;;32.90;70.60;;;;;;4901127;29;20400;-73
2023/07/08 09:36:51;;;;;;;7.57;3.13;;;33.40;66.90;;;;;;4899084;29;20047;-73
2023/07/08 09:39:19;;;;;;;3.78;2.63;;;34.00;66.00;;;;;;4900763;29;20126;-73
2023/07/08 09:41:47;;;;;;;4.60;3.00;;;34.70;65.20;;;;;;4904348;29;20039;-73
2023/07/08 09:44:25;;;;;;;6.45;3.08;;;35.20;62.10;;;;;;4907565;29;20036;-73
2023/07/08 09:46:53;;;;;;;9.02;3.45;;;35.00;60.80;;;;;;4899635;29;20287;-73
2023/07/08 09:49:30;;;;;;;7.10;2.92;;;34.60;62.00;;;;;;4904568;29;20605;-73
2023/07/08 09:51:56;;;;;;;6.45;3.10;;;34.20;62.80;;;;;;4897965;29;20032;-73
2023/07/08 09:54:24;;;;;;;7.03;3.03;;;33.70;64.60;;;;;;4900485;29;20059;-74
2023/07/08 09:57:19;;;;;;;5.82;2.90;;;33.50;65.60;;;;;;4897339;29;20024;-74
2023/07/08 09:59:52;;;;;;;5.72;3.00;;;33.50;66.70;;;;;;4892243;29;20488;-74
2023/07/08 10:02:29;;;;;;;5.13;2.70;;;34.00;68.50;;;;;;4899419;29;20024;-74
2023/07/08 10:04:58;;;;;;;5.13;2.95;;;34.50;61.10;;;;;;4901097;29;20399;-74
2023/07/08 10:07:27;;;;;;;4.80;2.58;;;34.80;63.30;;;;;;4897637;29;20413;-74
2023/07/08 10:09:56;;;;;;;7.43;2.50;;;34.90;61.90;;;;;;4912382;29;20086;-74
2023/07/08 10:12:23;;;;;;;5.03;2.80;;;34.70;59.80;;;;;;4904151;29;20028;-74
2023/07/08 10:14:53;;;;;;;7.10;2.95;;;34.10;62.40;;;;;;4900075;29;20024;-74
2023/07/08 10:17:20;;;;;;;10.48;2.80;;;33.40;66.80;;;;;;4899613;29;20980;-74
2023/07/08 10:19:46;;;;;;;4.32;2.58;;;32.30;64.70;;;;;;4899715;29;20568;-74
2023/07/08 10:22:25;;;;;;;3.88;2.55;;;31.50;68.90;;;;;;4891681;29;20048;-74
2023/07/08 10:25:12;;;;;;;4.93;2.47;;;30.90;69.70;;;;;;4889322;29;20571;-74
2023/07/08 10:27:49;;;;;;;5.80;2.70;;;30.60;71.00;;;;;;4918653;29;20036;-74
2023/07/08 10:30:25;;;;;;;4.60;2.40;;;30.60;71.40;;;;;;4900649;29;20032;-74
2023/07/08 10:33:32;;;;;;;4.80;2.65;;;30.40;73.50;;;;;;4895325;29;20228;-74
2023/07/08 10:36:15;;;;;;;5.22;2.65;;;30.40;74.90;;;;;;4893953;29;20060;-74
2023/07/08 10:39:01;;;;;;;6.20;2.80;;;30.40;76.90;;;;;;4899600;29;20122;-75
2023/07/08 10:41:43;;;;;;;4.28;2.47;;;30.60;77.50;;;;;;4901152;29;20111;-75
2023/07/08 10:44:33;;;;;;;6.43;2.60;;;31.20;76.80;;;;;;4893541;29;20111;-74
2023/07/08 10:47:05;;;;;;;5.97;2.25;;;32.40;75.90;;;;;;4916040;29;20070;-74
2023/07/08 10:49:58;;;;;;;5.55;2.45;;;34.40;69.20;;;;;;4917731;29;20119;-74
2023/07/08 10:52:56;;;;;;;4.40;2.35;;;36.00;62.30;;;;;;4902892;29;20028;-74
2023/07/08 10:55:37;;;;;;;4.75;3.08;;;38.80;56.20;;;;;;4890149;29;20024;-75
2023/07/08 10:58:36;;;;;;;6.63;3.53;;;39.20;54.30;;;;;;4902390;29;20032;-74
2023/07/08 11:01:10;;;;;;;8.52;4.70;;;38.70;49.70;;;;;;4896408;29;20078;-75
2023/07/08 11:03:50;;;;;;;7.65;4.18;;;37.40;51.80;;;;;;4897290;29;20028;-75
2023/07/08 11:06:23;;;;;;;11.77;5.60;;;36.50;52.70;;;;;;4559589;29;10000496;-75
2023/07/08 11:09:02;;;;;;;7.45;3.75;;;35.70;53.70;;;;;;4891972;29;20136;-75
2023/07/08 11:11:47;;;;;;;4.40;2.53;;;34.60;56.60;;;;;;4893099;29;20040;-75
2023/07/08 11:14:33;;;;;;;5.85;2.95;;;33.60;55.80;;;;;;4896873;29;20516;-75
2023/07/08 11:17:18;;;;;;;5.57;3.13;;;32.30;60.40;;;;;;4893201;29;20029;-74
2023/07/08 11:19:55;;;;;;;5.88;3.10;;;31.40;65.60;;;;;;4896359;29;20131;-75
2023/07/08 11:22:21;;;;;;;5.30;2.85;;;30.70;69.40;;;;;;4891889;29;20371;-75
2023/07/08 11:24:50;;;;;;;5.35;2.90;;;30.00;73.20;;;;;;4897462;29;20158;-75
2023/07/08 11:27:27;;;;;;;6.38;3.33;;;29.30;77.40;;;;;;4895436;29;20032;-75
2023/07/08 11:29:55;;;;;;;4.05;2.90;;;28.60;87.90;;;;;;4895877;29;20028;-75
2023/07/08 11:32:26;;;;;;;6.63;2.72;;;27.90;90.40;;;;;;4899453;29;20043;-75
2023/07/08 11:34:52;;;;;;;4.18;2.30;;;27.20;95.30;;;;;;4896835;29;20064;-75
2023/07/08 11:37:21;;;;;;;5.53;2.33;;;26.60;94.00;;;;;;4899556;29;20071;-75
2023/07/08 11:39:54;;;;;;;4.75;2.20;;;26.30;96.10;;;;;;4901772;29;20135;-75
2023/07/08 11:42:42;;;;;;;7.45;2.25;;;25.90;97.50;;;;;;4893775;29;20063;-75
2023/07/08 11:45:18;;;;;;;4.95;2.35;;;25.70;99.90;;;;;;4899431;29;20429;-76
2023/07/08 11:47:48;;;;;;;3.60;1.83;;;25.50;99.90;;;;;;4898442;29;20454;-76
2023/07/08 11:50:29;;;;;;;6.55;2.38;;;25.10;99.90;;;;;;4917278;29;20039;-75
2023/07/08 11:52:59;;;;;;;4.50;2.38;;;24.50;99.90;;;;;;4903745;29;20036;-76
2023/07/08 11:55:35;;;;;;;4.97;2.00;;;23.90;99.90;;;;;;4903904;29;20047;-75
2023/07/08 11:58:01;;;;;;;3.28;1.98;;;23.50;99.90;;;;;;4896345;29;20059;-75
2023/07/08 12:00:34;;;;;;;6.07;2.70;;;23.20;99.90;;;;;;4904036;29;20064;-74
2023/07/08 12:03:20;;;;;;;4.18;2.70;;;23.00;99.90;;;;;;4903272;29;20035;-76
2023/07/08 12:05:46;;;;;;;4.82;2.60;;;22.80;99.90;;;;;;4894125;29;20115;-75
2023/07/08 12:08:15;;;;;;;5.00;2.42;;;22.60;99.90;;;;;;4889251;29;20119;-74
2023/07/08 12:10:52;;;;;;;6.57;2.78;;;22.40;99.90;;;;;;4900930;29;20036;-73
2023/07/08 12:13:24;;;;;;;7.05;2.40;;;22.00;99.90;;;;;;4902434;29;20027;-74
2023/07/08 12:15:50;;;;;;;5.15;2.65;;;21.70;99.90;;;;;;4893849;29;20097;-75
2023/07/08 12:18:27;;;;;;;4.57;2.58;;;21.50;99.90;;;;;;4898898;29;20056;-76
2023/07/08 12:20:56;;;;;;;5.07;2.65;;;21.30;99.90;;;;;;4916759;29;20078;-79
2023/07/08 12:23:24;;;;;;;7.25;2.60;;;21.10;99.90;;;;;;4898702;29;20039;-78
2023/07/08 12:25:50;;;;;;;5.40;2.75;;;20.90;99.90;;;;;;4909442;29;20059;-77
2023/07/08 12:28:16;;;;;;;6.45;3.08;;;20.80;99.90;;;;;;4904074;29;20464;-77
2023/07/08 12:30:44;;;;;;;9.38;3.45;;;21.00;99.90;;;;;;4902470;29;20032;-77
2023/07/08 12:33:17;;;;;;;5.60;2.78;;;21.10;99.90;;;;;;4896103;29;20053;-78
2023/07/08 12:35:45;;;;;;;5.68;3.05;;;21.20;99.90;;;;;;4911497;29;20540;-78
2023/07/08 12:38:31;;;;;;;6.82;3.00;;;21.30;99.90;;;;;;4895309;29;21031;-77
2023/07/08 12:41:01;;;;;;;7.82;3.70;;;21.40;99.90;;;;;;4900076;29;20138;-78
2023/07/08 12:43:27;;;;;;;4.93;2.80;;;21.60;99.90;;;;;;4900070;29;20745;-77
2023/07/08 12:45:52;;;;;;;5.97;3.13;;;22.00;99.90;;;;;;4892240;29;20046;-77
2023/07/08 12:48:18;;;;;;;6.50;3.40;;;22.40;99.90;;;;;;4895023;29;20027;-78
2023/07/08 12:50:44;;;;;;;6.82;3.20;;;22.70;99.90;;;;;;4900739;29;20062;-77
2023/07/08 12:53:12;;;;;;;4.75;2.83;;;23.40;99.90;;;;;;4903744;29;20075;-77
2023/07/08 12:55:41;;;;;;;6.40;3.05;;;24.30;99.90;;;;;;4901076;29;20360;-76
2023/07/08 12:58:15;;;;;;;7.18;3.08;;;25.50;99.90;;;;;;4886992;29;20372;-76